Maesteg, United Kingdom
Current Conditions -  °F | °C
As of 9:50 AM on Thursday 29 Jan 2015 (Local Time) from EGDX Reporting Station
Rain Showers Rain Showers  
Wind Chill: 33°   Ceiling: 3600
Heat Index: 41°   Visibility: 6mi
Dew Point: 36°   Wind: 16mph
Humidity: 81%   Direction: 280°W
Pressure: 29.12"   Gusts: NA
Location:  51.61°N, 3.66°W
Report Text: EGDX 290950Z 28014KT 9999 -SHRA FEW018 SCT021CB BKN036 05/02 Q0986 WHT
Loading
Personal Weather Stations






























Interactive Weather Map New forecast layout! Learn more

10-Day Weather Forecast

Advertisements
Track Severe Weather on mobile